createdAt,value
2017-11-12T00:09:57.991Z,99666
2017-11-12T00:20:01.261Z,99665
2017-11-12T00:30:04.459Z,99643
2017-11-12T00:40:07.633Z,99636
2017-11-12T00:50:10.820Z,99637
2017-11-12T01:00:13.990Z,99630
2017-11-12T01:10:17.183Z,99632
2017-11-12T01:20:20.371Z,99624
2017-11-12T01:30:23.543Z,99621
2017-11-12T01:40:27.526Z,99632
2017-11-12T01:50:30.725Z,99631
2017-11-12T02:00:34.026Z,99618
2017-11-12T02:10:37.223Z,99614
2017-11-12T02:20:40.372Z,99615
2017-11-12T02:30:43.543Z,99597
2017-11-12T02:40:46.714Z,99598
2017-11-12T02:50:49.856Z,99596
2017-11-12T03:00:53.026Z,99583
2017-11-12T03:10:56.191Z,99550
2017-11-12T03:20:59.719Z,99530
2017-11-12T03:31:02.888Z,99522
2017-11-12T03:41:06.125Z,99509
2017-11-12T03:51:09.272Z,99503
2017-11-12T04:01:12.443Z,99514
2017-11-12T04:11:16.365Z,99499
2017-11-12T04:21:20.316Z,99518
2017-11-12T04:31:23.518Z,99498
2017-11-12T04:41:26.680Z,99472
2017-11-12T04:51:29.878Z,99444
2017-11-12T05:01:33.051Z,99458
2017-11-12T05:11:36.213Z,99464
2017-11-12T05:21:40.160Z,99462
2017-11-12T05:31:44.084Z,99421
2017-11-12T05:41:47.298Z,99415
2017-11-12T05:51:50.475Z,99398
2017-11-12T06:01:53.673Z,99399
2017-11-12T06:11:56.854Z,99362
2017-11-12T06:22:00.027Z,99340
2017-11-12T06:32:03.202Z,99318
2017-11-12T06:42:06.389Z,99286
2017-11-12T06:52:09.619Z,99271
2017-11-12T07:02:13.580Z,99263
2017-11-12T07:12:16.762Z,99207
2017-11-12T07:22:20.084Z,99192
2017-11-12T07:32:23.284Z,99186
2017-11-12T07:42:27.267Z,99157
2017-11-12T07:52:30.455Z,99139
2017-11-12T08:02:33.635Z,99110
2017-11-12T08:12:36.799Z,99070
2017-11-12T08:22:39.957Z,99049
2017-11-12T08:32:43.158Z,99034
2017-11-12T08:42:46.340Z,99042
2017-11-12T08:52:49.500Z,99026
2017-11-12T09:02:53.441Z,99008
2017-11-12T09:12:56.644Z,98988
2017-11-12T09:22:59.787Z,98969
2017-11-12T09:33:02.992Z,98968
2017-11-12T09:43:06.204Z,98965
2017-11-12T09:53:10.141Z,98952
2017-11-12T10:03:13.448Z,98915
2017-11-12T10:13:16.634Z,98908
2017-11-12T10:23:20.681Z,98828
2017-11-12T10:33:23.890Z,98762
2017-11-12T10:43:28.711Z,98755
2017-11-12T10:53:32.668Z,98709
2017-11-12T11:03:36.671Z,98725
2017-11-12T11:13:39.885Z,98712
2017-11-12T11:23:43.073Z,98680
2017-11-12T11:33:46.266Z,98689
2017-11-12T11:43:49.468Z,98637
2017-11-12T11:53:52.667Z,98644
2017-11-12T12:03:55.883Z,98651
2017-11-12T12:13:59.065Z,98631
2017-11-12T12:24:02.236Z,98611
2017-11-12T12:34:05.406Z,98577
2017-11-12T12:44:08.578Z,98631
2017-11-12T12:54:11.779Z,98597
2017-11-12T13:04:14.933Z,98595
2017-11-12T13:14:18.209Z,98613
2017-11-12T13:24:22.166Z,98675
2017-11-12T13:34:26.070Z,98669
2017-11-12T13:44:29.264Z,98621
2017-11-12T13:54:32.536Z,98644
2017-11-12T14:04:35.688Z,98649
2017-11-12T14:14:38.866Z,98660
2017-11-12T14:24:42.837Z,98643
2017-11-12T14:34:46.040Z,98638
2017-11-12T14:44:49.230Z,98622
2017-11-12T14:54:52.530Z,98621
2017-11-12T15:04:56.459Z,98643
2017-11-12T15:14:59.647Z,98657
2017-11-12T15:25:02.823Z,98690
2017-11-12T15:35:06.008Z,98682
2017-11-12T15:45:09.206Z,98699
2017-11-12T15:55:12.408Z,98704
2017-11-12T16:05:15.668Z,98723
2017-11-12T16:15:18.808Z,98739
2017-11-12T16:25:22.024Z,98753
2017-11-12T16:35:25.309Z,98774
2017-11-12T16:45:28.551Z,98799
2017-11-12T16:55:31.731Z,98802
2017-11-12T17:05:34.921Z,98829
2017-11-12T17:15:38.068Z,98853
2017-11-12T17:25:42.026Z,98855
2017-11-12T17:35:45.221Z,98863
2017-11-12T17:45:48.441Z,98885
2017-11-12T17:55:51.639Z,98898
2017-11-12T18:05:54.825Z,98923
2017-11-12T18:15:58.045Z,98932
2017-11-12T18:26:01.251Z,98968
2017-11-12T18:36:04.430Z,99006
2017-11-12T18:46:07.632Z,99015
2017-11-12T19:16:44.684Z,99068
2017-11-12T19:26:48.341Z,99075
2017-11-12T19:36:51.506Z,99098
2017-11-12T19:46:54.747Z,99106
2017-11-12T19:56:57.946Z,99130
2017-11-12T20:07:01.904Z,99150
2017-11-12T20:17:05.887Z,99162
2017-11-12T20:27:09.263Z,99186
2017-11-12T20:37:12.444Z,99202
2017-11-12T20:47:16.362Z,99229
2017-11-12T20:57:19.519Z,99232
2017-11-12T21:07:22.699Z,99260
2017-11-12T21:17:25.888Z,99281
2017-11-12T21:27:30.944Z,99286
2017-11-12T21:37:35.550Z,99294
2017-11-12T21:47:38.787Z,99293
2017-11-12T21:57:41.992Z,99306
2017-11-12T22:07:45.280Z,99317
2017-11-12T22:17:48.429Z,99326
2017-11-12T22:27:52.386Z,99346
2017-11-12T22:37:56.339Z,99373
2017-11-12T22:48:00.251Z,99386
2017-11-12T22:58:03.455Z,99388
2017-11-12T23:08:06.676Z,99390
2017-11-12T23:18:09.878Z,99390
2017-11-12T23:28:13.044Z,99417
2017-11-12T23:38:17.020Z,99428
2017-11-12T23:48:20.199Z,99424
2017-11-12T23:58:23.392Z,99436
